Time;durP1;ratioP1;P1;durP2;ratioP2;P2;SDS_P1;SDS_P2;PMS_P1;PMS_P2;Temp;Humidity;BMP_temperature;BMP_pressure;BME280_temperature;BME280_humidity;BME280_pressure;Samples;Min_cycle;Max_cycle;Signal;HPM_P1;HPM_P2
2022/11/22 00:00:38;;;;;;;33.63;17.67;;;;;;;0.07;83.62;99502.21;1720582;82;21547;-76
2022/11/22 00:03:08;;;;;;;34.47;18.30;;;;;;;0.08;83.65;99499.60;1726960;82;21054;-79
2022/11/22 00:05:37;;;;;;;37.90;18.70;;;;;;;0.10;83.51;99496.59;1726279;82;20980;-79
2022/11/22 00:08:04;;;;;;;37.53;18.37;;;;;;;0.10;83.35;99494.02;1732629;82;21004;-77
2022/11/22 00:10:32;;;;;;;37.40;19.20;;;;;;;0.12;83.68;99496.59;1715654;82;21017;-75
2022/11/22 00:12:59;;;;;;;36.10;18.63;;;;;;;0.16;83.59;99496.52;1726084;82;21612;-75
2022/11/22 00:15:26;;;;;;;37.60;20.33;;;;;;;0.17;83.71;99493.09;1723860;82;21135;-75
2022/11/22 00:17:53;;;;;;;34.03;18.73;;;;;;;0.17;83.58;99490.52;1730531;82;21028;-75
2022/11/22 00:20:20;;;;;;;38.83;18.97;;;;;;;0.15;83.51;99479.80;1710510;82;21046;-77
2022/11/22 00:22:47;;;;;;;36.07;19.27;;;;;;;0.13;83.62;99475.94;1724154;82;21446;-79
2022/11/22 00:25:14;;;;;;;33.90;18.63;;;;;;;0.16;83.78;99469.91;1732480;82;21066;-75
2022/11/22 00:27:41;;;;;;;36.23;20.33;;;;;;;0.16;83.64;99461.73;1732361;82;21146;-75
2022/11/22 00:30:09;;;;;;;32.93;18.10;;;;;;;0.13;83.45;99458.34;1732247;82;21078;-75
2022/11/22 00:32:36;;;;;;;34.53;18.37;;;;;;;0.10;83.66;99454.52;1722834;82;21014;-75
2022/11/22 00:35:04;;;;;;;37.00;19.07;;;;;;;0.07;83.85;99451.53;1727386;82;20992;-75
2022/11/22 00:37:31;;;;;;;34.53;18.20;;;;;;;0.06;83.88;99450.27;1723721;82;21012;-78
2022/11/22 00:39:58;;;;;;;36.30;19.00;;;;;;;0.06;83.91;99456.27;1719059;82;21307;-76
2022/11/22 00:42:25;;;;;;;37.77;19.40;;;;;;;0.06;84.04;99456.72;1736090;81;21066;-77
2022/11/22 00:44:52;;;;;;;34.53;18.27;;;;;;;0.12;84.39;99461.80;1736052;81;21027;-76
2022/11/22 00:47:19;;;;;;;35.93;18.33;;;;;;;0.13;84.19;99463.50;1736241;82;21007;-79
2022/11/22 00:49:46;;;;;;;31.03;17.97;;;;;;;0.17;84.44;99468.61;1735991;82;21019;-75
2022/11/22 00:52:13;;;;;;;33.63;18.00;;;;;;;0.19;84.34;99468.58;1736235;81;21521;-75
2022/11/22 00:54:40;;;;;;;32.23;17.93;;;;;;;0.20;84.48;99478.89;1736156;82;21535;-76
2022/11/22 00:57:07;;;;;;;35.83;17.70;;;;;;;0.24;84.44;99474.99;1736269;82;21002;-75
2022/11/22 00:59:34;;;;;;;28.77;16.27;;;;;;;0.22;84.16;99467.27;1735922;82;21445;-75
2022/11/22 01:02:01;;;;;;;29.47;16.37;;;;;;;0.18;84.14;99464.31;1736299;82;21485;-75
2022/11/22 01:04:28;;;;;;;38.40;18.30;;;;;;;0.14;84.21;99450.61;1735999;82;21083;-75
2022/11/22 01:06:57;;;;;;;31.10;17.73;;;;;;;0.12;84.32;99444.61;1736194;82;21454;-75
2022/11/22 01:09:25;;;;;;;33.20;16.43;;;;;;;0.12;84.50;99445.91;1735979;82;21034;-75
2022/11/22 01:11:52;;;;;;;29.40;16.53;;;;;;;0.12;84.51;99443.77;1736316;82;21019;-76
2022/11/22 01:14:19;;;;;;;33.63;18.47;;;;;;;0.09;84.50;99445.09;1710924;82;21067;-75
2022/11/22 01:16:47;;;;;;;35.97;18.40;;;;;;;0.11;84.73;99439.45;1736217;82;21154;-75
2022/11/22 01:19:14;;;;;;;34.77;18.30;;;;;;;0.09;84.60;99439.94;1736102;82;20912;-77
2022/11/22 01:21:41;;;;;;;33.77;18.93;;;;;;;0.08;84.73;99436.91;1735944;82;21483;-75
2022/11/22 01:24:08;;;;;;;35.57;19.43;;;;;;;0.07;84.87;99434.78;1736298;82;21018;-76
2022/11/22 01:26:37;;;;;;;35.60;19.43;;;;;;;0.08;85.04;99430.03;1735916;82;21007;-75
2022/11/22 01:29:04;;;;;;;32.57;18.40;;;;;;;0.09;85.11;99436.06;1736305;82;21133;-75
2022/11/22 01:31:32;;;;;;;32.57;18.97;;;;;;;0.08;85.11;99426.17;1735897;82;20967;-75
2022/11/22 01:33:59;;;;;;;33.70;18.03;;;;;;;0.11;85.35;99423.59;1736015;82;21031;-77
2022/11/22 01:36:27;;;;;;;36.13;19.23;;;;;;;0.12;85.22;99420.13;1736190;82;21058;-76
2022/11/22 01:38:54;;;;;;;35.27;17.63;;;;;;;0.15;85.38;99412.37;1736333;82;21027;-77
2022/11/22 01:41:22;;;;;;;31.60;17.00;;;;;;;0.14;85.34;99401.66;1751326;81;21094;-75
2022/11/22 01:43:49;;;;;;;35.20;18.57;;;;;;;0.15;85.37;99399.92;1761772;81;20999;-75
2022/11/22 01:46:38;;;;;;;33.50;18.60;;;;;;;0.16;85.57;99399.89;1724999;82;21042;-76
2022/11/22 01:49:32;;;;;;;31.90;17.13;;;;;;;0.19;85.76;99415.75;1723856;82;20996;-76
2022/11/22 01:52:18;;;;;;;34.90;18.07;;;;;;;0.20;85.72;99424.77;1733073;82;21198;-79
2022/11/22 01:54:57;;;;;;;33.13;17.53;;;;;;;0.26;85.82;99417.84;1735200;82;21992;-74
2022/11/22 01:57:29;;;;;;;31.57;17.80;;;;;;;0.29;85.81;99421.23;1734311;82;21067;-75
2022/11/22 02:00:01;;;;;;;33.10;18.40;;;;;;;0.32;86.21;99421.20;1735300;82;21064;-75
2022/11/22 02:02:30;;;;;;;34.50;17.73;;;;;;;0.37;85.80;99427.60;1713970;82;21026;-75
2022/11/22 02:05:01;;;;;;;32.93;18.33;;;;;;;0.32;85.57;99408.75;1735267;82;21018;-75
2022/11/22 02:07:47;;;;;;;31.33;17.10;;;;;;;0.28;85.49;99407.95;1743383;81;22688;-75
2022/11/22 02:10:16;;;;;;;38.50;18.93;;;;;;;0.27;85.77;99407.50;1743486;81;21019;-75
2022/11/22 02:12:44;;;;;;;36.03;18.23;;;;;;;0.29;85.95;99410.08;1743311;82;20999;-75
2022/11/22 02:15:12;;;;;;;31.17;17.67;;;;;;;0.25;85.82;99405.41;1743591;81;20996;-79
2022/11/22 02:17:39;;;;;;;34.93;19.37;;;;;;;0.27;86.08;99406.22;1743401;82;21089;-76
2022/11/22 02:20:08;;;;;;;32.93;18.00;;;;;;;0.28;85.86;99402.80;1743574;81;21105;-75
2022/11/22 02:22:53;;;;;;;34.57;18.40;;;;;;;0.24;85.91;99397.23;1743350;82;21465;-74
2022/11/22 02:25:28;;;;;;;34.07;18.33;;;;;;;0.25;86.02;99394.22;1743263;81;21015;-78
2022/11/22 02:27:55;;;;;;;33.90;17.93;;;;;;;0.21;86.00;99396.83;1709551;82;21003;-75
2022/11/22 02:30:22;;;;;;;33.43;18.40;;;;;;;0.21;86.34;99406.30;1743636;81;21031;-75
2022/11/22 02:32:49;;;;;;;32.73;17.87;;;;;;;0.24;86.33;99401.10;1743399;81;21178;-75
2022/11/22 02:35:28;;;;;;;39.27;19.00;;;;;;;0.26;86.55;99402.39;1726873;81;21048;-75
2022/11/22 02:38:09;;;;;;;31.73;18.10;;;;;;;0.27;86.57;99401.50;1713693;82;21004;-75
2022/11/22 02:40:47;;;;;;;34.67;18.57;;;;;;;0.25;86.57;99392.52;1719219;81;21165;-75
2022/11/22 02:43:19;;;;;;;34.27;18.43;;;;;;;0.28;86.82;99398.05;1728200;81;21231;-76
2022/11/22 02:45:46;;;;;;;31.27;16.80;;;;;;;0.29;86.76;99394.17;1723196;81;21801;-79
2022/11/22 02:48:16;;;;;;;30.60;17.13;;;;;;;0.29;86.77;99389.47;1712590;82;21062;-77
2022/11/22 02:50:43;;;;;;;31.80;18.10;;;;;;;0.31;87.00;99384.71;1718006;82;20993;-75
2022/11/22 02:53:12;;;;;;;33.17;17.23;;;;;;;0.34;87.15;99386.40;1734329;82;21015;-77
2022/11/22 02:55:39;;;;;;;30.47;17.27;;;;;;;0.35;87.09;99386.36;1734113;81;21023;-75
2022/11/22 02:58:07;;;;;;;34.60;18.07;;;;;;;0.36;87.11;99380.77;1736128;82;21132;-75
2022/11/22 03:00:36;;;;;;;32.53;17.87;;;;;;;0.34;86.87;99370.94;1740357;82;21011;-78
2022/11/22 03:03:04;;;;;;;35.17;17.60;;;;;;;0.33;87.14;99367.92;1740009;82;21052;-75
2022/11/22 03:05:31;;;;;;;30.33;16.53;;;;;;;0.37;87.37;99368.31;1731995;81;21012;-75
2022/11/22 03:07:58;;;;;;;30.20;16.90;;;;;;;0.39;87.36;99373.03;1727942;82;21035;-77
2022/11/22 03:10:25;;;;;;;32.30;17.03;;;;;;;0.42;87.44;99378.14;1737211;82;21186;-75
2022/11/22 03:12:52;;;;;;;31.80;18.00;;;;;;;0.42;87.38;99378.14;1725335;82;20942;-75
2022/11/22 03:15:19;;;;;;;31.23;17.57;;;;;;;0.44;87.38;99375.08;1736997;82;21003;-75
2022/11/22 03:17:46;;;;;;;30.07;17.50;;;;;;;0.44;87.37;99373.39;1734293;82;21020;-75
2022/11/22 03:20:13;;;;;;;33.47;17.77;;;;;;;0.45;87.54;99374.23;1735807;81;21540;-76
2022/11/22 03:22:40;;;;;;;31.53;16.00;;;;;;;0.44;87.34;99372.51;1719685;82;21141;-78
2022/11/22 03:25:09;;;;;;;29.43;17.27;;;;;;;0.42;87.44;99369.12;1740317;82;21011;-75
2022/11/22 03:27:36;;;;;;;33.20;17.03;;;;;;;0.41;87.54;99368.68;1736558;82;21569;-77
2022/11/22 03:30:04;;;;;;;32.80;18.73;;;;;;;0.42;87.53;99374.27;1733723;82;20996;-78
2022/11/22 03:32:31;;;;;;;36.23;19.27;;;;;;;0.41;87.56;99369.97;1719081;82;21150;-75
2022/11/22 03:34:58;;;;;;;35.33;18.43;;;;;;;0.39;87.54;99364.85;1740426;82;21925;-76
2022/11/22 03:37:25;;;;;;;33.00;18.13;;;;;;;0.41;87.72;99362.23;1729584;82;20992;-77
2022/11/22 03:39:52;;;;;;;32.40;18.23;;;;;;;0.42;87.76;99372.98;1728561;81;21012;-75
2022/11/22 03:42:20;;;;;;;35.60;19.03;;;;;;;0.41;87.73;99366.95;1710160;82;20988;-75
2022/11/22 03:44:47;;;;;;;32.97;18.67;;;;;;;0.41;87.75;99372.55;1739560;81;21071;-78
2022/11/22 03:47:14;;;;;;;36.90;20.20;;;;;;;0.42;88.14;99367.39;1731488;82;21128;-79
2022/11/22 03:49:41;;;;;;;37.73;20.77;;;;;;;0.49;88.22;99368.15;1722735;82;21047;-75
2022/11/22 03:52:09;;;;;;;39.17;20.97;;;;;;;0.55;88.37;99369.36;1717823;82;21449;-78
2022/11/22 03:54:36;;;;;;;38.77;21.70;;;;;;;0.54;88.14;99368.95;1734082;82;21519;-75
2022/11/22 03:57:04;;;;;;;39.70;22.13;;;;;;;0.59;88.37;99371.04;1722625;82;21482;-75
2022/11/22 03:59:31;;;;;;;43.13;23.20;;;;;;;0.60;87.95;99373.17;1739952;82;21485;-74
2022/11/22 04:01:59;;;;;;;39.80;22.33;;;;;;;0.52;87.64;99368.55;1739886;82;21086;-75
2022/11/22 04:04:26;;;;;;;45.80;23.77;;;;;;;0.46;87.64;99372.06;1720472;82;21016;-78
2022/11/22 04:06:53;;;;;;;45.40;24.77;;;;;;;0.43;87.81;99369.52;1735131;82;21000;-80
2022/11/22 04:09:20;;;;;;;48.30;23.80;;;;;;;0.39;87.75;99363.56;1733749;82;21066;-79
2022/11/22 04:11:47;;;;;;;45.57;23.97;;;;;;;0.39;87.84;99360.14;1739943;82;21091;-75
2022/11/22 04:17:00;;;;;;;47.20;24.03;;;;;;;0.33;87.91;99357.61;1739042;82;21003;-79
2022/11/22 04:19:27;;;;;;;49.83;24.77;;;;;;;0.32;88.10;99367.07;1740099;81;21024;-75
2022/11/22 04:21:54;;;;;;;43.63;23.67;;;;;;;0.33;88.16;99372.63;1738200;82;21094;-75
2022/11/22 04:27:06;;;;;;;43.23;22.40;;;;;;;0.27;87.83;99379.59;1719254;82;21020;-76
2022/11/22 04:29:33;;;;;;;40.60;22.53;;;;;;;0.21;87.97;99376.22;1725252;81;20984;-74
2022/11/22 04:34:46;;;;;;;38.33;21.57;;;;;;;0.18;88.04;99383.98;1726427;82;21027;-75
2022/11/22 04:37:13;;;;;;;37.73;20.67;;;;;;;0.13;88.01;99379.31;1727744;82;21104;-75
2022/11/22 04:39:40;;;;;;;40.07;20.70;;;;;;;0.11;88.28;99378.50;1732096;82;21011;-75
2022/11/22 04:44:55;;;;;;;41.47;22.43;;;;;;;0.12;88.53;99375.05;1697586;83;21081;-75
2022/11/22 04:52:52;;;;;;;41.23;22.73;;;;;;;0.09;88.40;99372.50;1682755;84;21016;-75
2022/11/22 04:55:20;;;;;;;39.67;20.53;;;;;;;0.09;88.41;99366.50;1689880;83;21009;-79
2022/11/22 04:57:46;;;;;;;38.40;21.97;;;;;;;0.05;88.20;99363.08;1711488;83;21015;-76
2022/11/22 05:00:15;;;;;;;41.83;20.73;;;;;;;0.03;88.65;99358.41;1721078;83;20996;-76
2022/11/22 05:02:42;;;;;;;44.00;22.50;;;;;;;0.07;88.80;99351.05;1699160;83;21118;-79
2022/11/22 05:05:09;;;;;;;41.53;21.33;;;;;;;0.08;88.67;99343.72;1688521;83;21034;-75
2022/11/22 05:07:36;;;;;;;42.27;22.73;;;;;;;0.10;88.52;99343.72;1689934;83;21035;-75
2022/11/22 05:10:04;;;;;;;41.97;21.53;;;;;;;0.00;88.25;99341.70;1692279;83;21372;-75
2022/11/22 05:12:31;;;;;;;42.43;22.47;;;;;;;-0.02;88.52;99338.28;1686580;83;21496;-75
2022/11/22 05:14:58;;;;;;;40.60;21.87;;;;;;;-0.07;88.23;99343.47;1714217;83;21108;-75
2022/11/22 05:17:25;;;;;;;40.40;21.27;;;;;;;-0.12;88.28;99354.69;1720807;83;21501;-75
2022/11/22 05:19:52;;;;;;;39.73;21.17;;;;;;;-0.16;88.49;99364.18;1702059;83;21023;-77
2022/11/22 05:23:53;;;;;;;38.00;20.03;;;;;;;-0.19;88.43;99373.64;1686660;83;21067;-75
2022/11/22 05:24:48;;;;;;;38.90;21.13;;;;;;;-0.21;88.58;99377.53;1688321;83;21090;-75
2022/11/22 05:27:19;;;;;;;41.53;20.70;;;;;;;-0.23;88.73;99375.40;1692432;83;21195;-75
2022/11/22 05:29:46;;;;;;;37.83;19.32;;;;;;;-0.23;88.83;99384.41;1686749;83;21287;-76
2022/11/22 05:32:13;;;;;;;37.17;19.47;;;;;;;-0.23;88.88;99398.58;1686580;83;21059;-75
2022/11/22 05:34:40;;;;;;;33.80;18.13;;;;;;;-0.23;89.06;99389.13;1690418;83;21038;-75
2022/11/22 05:37:07;;;;;;;34.97;18.60;;;;;;;-0.25;88.94;99400.30;1691719;83;21012;-75
2022/11/22 05:39:34;;;;;;;35.07;18.60;;;;;;;-0.25;89.10;99405.45;1700827;83;21786;-76
2022/11/22 05:42:04;;;;;;;35.07;18.07;;;;;;;-0.23;89.22;99408.88;1709154;82;20999;-76
2022/11/22 05:44:30;;;;;;;34.87;18.47;;;;;;;-0.20;89.39;99398.55;1733834;82;21272;-75
2022/11/22 05:46:57;;;;;;;35.20;17.37;;;;;;;-0.20;89.11;99402.84;1738453;82;21477;-75
2022/11/22 05:49:24;;;;;;;34.27;17.43;;;;;;;-0.23;89.01;99405.86;1738295;82;21019;-75
2022/11/22 05:51:51;;;;;;;33.30;16.57;;;;;;;-0.24;89.30;99410.61;1738705;82;21068;-75
2022/11/22 05:54:18;;;;;;;31.30;15.97;;;;;;;-0.22;89.39;99418.33;1738259;82;21031;-75
2022/11/22 05:56:47;;;;;;;36.60;18.23;;;;;;;-0.20;89.47;99418.30;1738287;82;20996;-75
2022/11/22 05:59:14;;;;;;;35.30;17.00;;;;;;;-0.19;89.44;99420.88;1738427;82;21011;-80
2022/11/22 06:01:41;;;;;;;32.43;16.33;;;;;;;-0.16;89.61;99417.42;1738308;82;21021;-76
2022/11/22 06:04:08;;;;;;;33.27;16.70;;;;;;;-0.10;89.83;99429.80;1733911;82;21603;-75
2022/11/22 06:06:35;;;;;;;31.87;16.30;;;;;;;-0.10;89.55;99419.49;1728851;82;21011;-79
2022/11/22 06:09:02;;;;;;;33.77;17.20;;;;;;;-0.10;89.59;99421.22;1729149;82;21571;-75
2022/11/22 06:11:29;;;;;;;33.80;16.87;;;;;;;-0.08;89.64;99425.93;1723470;82;21461;-81
2022/11/22 06:14:02;;;;;;;38.17;18.70;;;;;;;-0.06;89.81;99421.59;1734313;82;21027;-80
2022/11/22 06:16:29;;;;;;;37.03;18.37;;;;;;;-0.06;89.66;99416.00;1724931;82;21983;-80
2022/11/22 06:18:56;;;;;;;31.50;17.03;;;;;;;-0.06;89.61;99417.73;1719338;82;21059;-79
2022/11/22 06:21:25;;;;;;;34.33;17.40;;;;;;;-0.05;89.76;99409.16;1723138;82;21637;-82
2022/11/22 06:23:55;;;;;;;35.80;17.80;;;;;;;-0.03;89.78;99415.13;1720706;82;21384;-80
2022/11/22 06:26:24;;;;;;;38.23;18.07;;;;;;;-0.05;89.64;99404.84;1726501;82;21047;-76
2022/11/22 06:28:51;;;;;;;35.97;18.30;;;;;;;-0.07;89.58;99408.31;1723180;82;21037;-74
2022/11/22 06:31:21;;;;;;;39.90;19.07;;;;;;;-0.06;89.66;99416.44;1728025;82;21031;-83
2022/11/22 06:33:48;;;;;;;41.35;19.30;;;;;;;-0.07;89.80;99421.19;1722898;82;21905;-79
2022/11/22 06:36:20;;;;;;;40.60;20.07;;;;;;;-0.05;90.13;99420.30;1728716;82;21071;-80
2022/11/22 06:38:47;;;;;;;44.87;21.03;;;;;;;0.00;90.11;99426.71;1723481;81;21035;-82
2022/11/22 06:41:18;;;;;;;43.70;20.17;;;;;;;0.00;90.00;99425.42;1728788;82;21914;-82
2022/11/22 06:43:46;;;;;;;;;;;;;;;0.01;89.96;99428.41;1716989;81;21486;-80
2022/11/22 06:46:14;;;;;;;40.93;19.20;;;;;;;-0.02;89.78;99431.02;1733081;82;20185;-74
2022/11/22 06:48:42;;;;;;;42.57;20.33;;;;;;;-0.03;90.22;99429.29;1731841;82;21020;-75
2022/11/22 06:51:21;;;;;;;43.07;20.40;;;;;;;0.01;90.21;99429.70;1756872;80;21395;-79
2022/11/22 06:53:49;;;;;;;46.23;20.90;;;;;;;0.01;89.95;99410.81;1733438;82;22066;-85
2022/11/22 06:56:26;;;;;;;40.40;19.23;;;;;;;-0.01;89.86;99410.81;1733631;81;21031;-76
2022/11/22 06:58:53;;;;;;;42.23;20.30;;;;;;;-0.05;89.90;99415.16;1736788;81;21530;-77
2022/11/22 07:01:28;;;;;;;43.37;20.27;;;;;;;-0.04;89.97;99418.14;1757230;81;21039;-78
2022/11/22 07:03:57;;;;;;;43.20;20.27;;;;;;;-0.02;90.24;99411.25;1737514;80;21668;-78
2022/11/22 07:06:37;;;;;;;42.80;19.73;;;;;;;-0.01;90.14;99420.68;1754525;81;21694;-77
2022/11/22 07:09:07;;;;;;;44.35;20.00;;;;;;;-0.01;90.15;99414.68;1730552;81;21479;-77
2022/11/22 07:11:35;;;;;;;45.10;20.15;;;;;;;-0.01;90.15;99422.41;1728702;81;21027;-75
2022/11/22 07:14:04;;;;;;;41.10;20.57;;;;;;;-0.01;90.21;99423.70;1744232;81;21051;-84
2022/11/22 07:16:30;;;;;;;39.37;19.47;;;;;;;0.01;90.23;99424.55;1729917;81;21284;-79
2022/11/22 07:18:59;;;;;;;41.30;19.23;;;;;;;0.02;90.44;99417.22;1752389;79;21120;-78
2022/11/22 07:21:26;;;;;;;38.60;17.97;;;;;;;0.04;90.38;99421.08;1741648;79;20912;-82
2022/11/22 07:23:54;;;;;;;41.43;19.10;;;;;;;0.06;90.32;99419.35;1725147;82;21042;-79
2022/11/22 07:26:23;;;;;;;41.73;18.97;;;;;;;0.07;90.24;99419.32;1726486;82;21488;-82
2022/11/22 07:28:51;;;;;;;40.30;18.37;;;;;;;0.10;90.39;99422.30;1728401;82;21023;-75
2022/11/22 07:31:18;;;;;;;43.13;18.03;;;;;;;0.10;90.55;99417.16;1739576;81;21109;-75
2022/11/22 07:33:46;;;;;;;38.43;17.63;;;;;;;0.13;90.58;99418.41;1758711;81;21004;-79
2022/11/22 07:36:17;;;;;;;41.97;18.57;;;;;;;0.13;90.46;99418.41;1759067;81;21027;-76
2022/11/22 07:38:44;;;;;;;;;;;;;;;0.13;90.46;99422.27;1761721;81;21055;-75
2022/11/22 07:41:13;;;;;;;37.07;18.40;;;;;;;0.14;90.54;99422.27;1759854;81;20486;-76
2022/11/22 07:43:41;;;;;;;42.33;18.80;;;;;;;0.16;90.76;99419.22;1759706;81;21169;-74
2022/11/22 07:46:31;;;;;;;42.60;20.03;;;;;;;0.20;90.84;99425.22;1759601;81;21035;-75
2022/11/22 07:49:00;;;;;;;41.55;18.20;;;;;;;0.25;90.87;99436.74;1759777;81;21039;-75
2022/11/22 07:51:28;;;;;;;38.63;18.50;;;;;;;0.25;90.87;99436.74;1759666;81;21008;-75
2022/11/22 07:53:56;;;;;;;42.00;19.43;;;;;;;0.31;90.99;99426.39;1759953;81;20972;-77
2022/11/22 07:56:24;;;;;;;45.17;20.07;;;;;;;0.30;90.62;99424.22;1759701;81;21102;-76
2022/11/22 07:58:51;;;;;;;39.73;17.77;;;;;;;0.29;90.83;99422.53;1760126;81;21036;-75
2022/11/22 08:01:19;;;;;;;41.30;18.87;;;;;;;0.33;90.99;99410.45;1759636;81;21035;-75
2022/11/22 08:03:47;;;;;;;40.50;19.30;;;;;;;0.39;91.12;99409.97;1759972;81;21020;-76
2022/11/22 08:06:15;;;;;;;37.00;18.73;;;;;;;0.42;90.96;99406.06;1759777;81;21362;-75
2022/11/22 08:08:43;;;;;;;37.47;18.83;;;;;;;0.44;91.08;99400.86;1760023;81;21831;-75
2022/11/22 08:11:11;;;;;;;43.33;19.20;;;;;;;0.45;90.66;99410.33;1759550;81;21051;-80
2022/11/22 08:13:39;;;;;;;42.17;19.20;;;;;;;0.42;90.84;99395.75;1760029;81;21019;-75
2022/11/22 08:16:10;;;;;;;43.20;20.33;;;;;;;0.46;91.06;99395.70;1759700;81;21544;-76
2022/11/22 08:18:39;;;;;;;42.93;20.33;;;;;;;0.53;91.47;99399.48;1759951;81;21584;-80
2022/11/22 08:21:09;;;;;;;42.47;19.17;;;;;;;0.57;91.18;99392.11;1759835;81;21128;-75
2022/11/22 08:23:37;;;;;;;44.63;19.53;;;;;;;0.63;91.42;99393.31;1759867;81;21078;-75
2022/11/22 08:26:07;;;;;;;42.83;19.77;;;;;;;0.69;91.46;99392.38;1759914;81;21074;-74
2022/11/22 08:28:35;;;;;;;42.70;19.87;;;;;;;0.79;91.54;99386.68;1759833;81;21047;-75
2022/11/22 08:31:10;;;;;;;49.33;21.23;;;;;;;0.86;91.65;99380.13;1759969;81;21023;-75
2022/11/22 08:33:38;;;;;;;46.27;20.53;;;;;;;0.94;91.42;99389.48;1759769;81;21127;-75
2022/11/22 08:36:06;;;;;;;45.73;20.53;;;;;;;0.96;91.32;99383.86;1759897;81;21031;-75
2022/11/22 08:38:33;;;;;;;44.70;20.97;;;;;;;0.95;91.15;99379.59;1759727;81;21004;-77
2022/11/22 08:41:02;;;;;;;43.20;20.43;;;;;;;0.95;90.94;99383.46;1759776;81;21011;-75
2022/11/22 08:43:31;;;;;;;46.57;21.23;;;;;;;0.98;91.29;99387.28;1750649;81;21004;-75
2022/11/22 08:45:58;;;;;;;50.47;21.27;;;;;;;0.99;91.00;99387.25;1739990;82;21088;-76
2022/11/22 08:48:26;;;;;;;46.97;21.60;;;;;;;1.01;90.93;99391.11;1734780;82;20908;-75
2022/11/22 08:51:00;;;;;;;51.87;21.67;;;;;;;0.99;91.10;99396.28;1714936;82;21016;-75
2022/11/22 08:53:28;;;;;;;47.73;21.50;;;;;;;1.00;91.02;99396.71;1715744;82;20992;-75
2022/11/22 08:55:57;;;;;;;43.93;19.83;;;;;;;0.99;91.08;99398.86;1725684;82;21014;-79
2022/11/22 08:58:24;;;;;;;45.13;21.80;;;;;;;1.00;91.05;99404.86;1720816;82;21308;-75
2022/11/22 09:00:52;;;;;;;45.43;21.03;;;;;;;0.98;91.13;99408.77;1740222;81;21004;-75
2022/11/22 09:03:19;;;;;;;47.87;20.87;;;;;;;0.99;91.24;99405.75;1718908;82;21079;-80
2022/11/22 09:05:47;;;;;;;47.43;20.63;;;;;;;0.99;91.19;99396.28;1732478;82;20909;-76
2022/11/22 09:08:14;;;;;;;47.27;21.37;;;;;;;1.00;91.41;99392.84;1735557;82;21541;-75
2022/11/22 09:10:44;;;;;;;41.10;17.93;;;;;;;1.02;91.19;99381.19;1731797;82;21159;-76
2022/11/22 09:13:11;;;;;;;46.55;19.75;;;;;;;1.02;91.18;99383.77;1740022;82;21019;-76
2022/11/22 09:15:38;;;;;;;44.47;20.40;;;;;;;1.02;91.35;99384.62;1734995;82;21020;-75
2022/11/22 09:18:05;;;;;;;39.47;18.73;;;;;;;1.05;91.46;99387.18;1735169;82;20995;-76
2022/11/22 09:20:32;;;;;;;40.93;20.03;;;;;;;1.08;91.53;99384.97;1719337;82;21034;-77
2022/11/22 09:23:01;;;;;;;36.27;18.87;;;;;;;1.11;91.59;99396.56;1731292;82;21930;-79
2022/11/22 09:25:29;;;;;;;44.80;18.50;;;;;;;1.12;91.44;99395.67;1738871;82;21513;-76
2022/11/22 09:28:04;;;;;;;39.73;18.97;;;;;;;1.15;91.56;99402.52;1732443;82;21012;-75
2022/11/22 09:30:31;;;;;;;35.70;18.03;;;;;;;1.17;91.38;99409.81;1732703;82;21032;-76
2022/11/22 09:32:57;;;;;;;39.70;18.93;;;;;;;1.21;91.65;99407.14;1717998;82;22002;-76
2022/11/22 09:35:25;;;;;;;40.83;19.80;;;;;;;1.30;91.83;99406.14;1737022;82;21521;-76
2022/11/22 09:37:52;;;;;;;38.10;18.93;;;;;;;1.37;91.82;99403.89;1739950;82;21022;-75
2022/11/22 09:40:19;;;;;;;39.27;17.27;;;;;;;1.42;91.73;99410.29;1739836;82;21047;-75
2022/11/22 09:43:01;;;;;;;35.33;18.20;;;;;;;1.45;91.63;99409.80;1727592;82;21055;-77
2022/11/22 09:45:39;;;;;;;35.33;18.60;;;;;;;1.49;91.55;99415.75;1731906;82;21063;-76
2022/11/22 09:48:28;;;;;;;32.63;16.83;;;;;;;1.49;91.38;99408.85;1737380;82;21919;-75
2022/11/22 09:51:06;;;;;;;35.53;17.73;;;;;;;1.55;91.63;99401.44;1719172;82;21444;-74
2022/11/22 09:53:53;;;;;;;37.90;18.20;;;;;;;1.61;91.51;99403.07;1731110;82;21004;-78
2022/11/22 09:56:25;;;;;;;42.90;20.40;;;;;;;1.61;91.47;99396.20;1737305;82;21074;-75
2022/11/22 09:58:56;;;;;;;42.30;20.00;;;;;;;1.62;91.56;99395.76;1725559;82;21026;-76
2022/11/22 10:01:46;;;;;;;45.20;20.40;;;;;;;1.65;91.68;99395.70;1726712;82;21109;-77
2022/11/22 10:04:37;;;;;;;44.93;20.50;;;;;;;1.69;91.49;99393.47;1723365;81;20968;-80
2022/11/22 10:07:18;;;;;;;43.20;20.70;;;;;;;1.72;91.54;99399.45;1720504;82;26761;-78
2022/11/22 10:10:06;;;;;;;45.30;21.63;;;;;;;1.74;91.61;99390.37;1738899;82;21023;-75
2022/11/22 10:12:40;;;;;;;44.47;21.87;;;;;;;1.76;91.44;99386.88;1710296;81;20973;-75
2022/11/22 10:15:35;;;;;;;47.20;21.00;;;;;;;1.76;91.33;99383.00;1720963;82;21486;-78
2022/11/22 10:18:15;;;;;;;45.93;21.30;;;;;;;1.73;91.32;99386.94;1695316;82;21049;-75
2022/11/22 10:20:44;;;;;;;46.20;20.40;;;;;;;1.77;91.64;99388.61;1721178;82;21015;-77
2022/11/22 10:23:22;;;;;;;48.97;22.20;;;;;;;1.75;91.44;99377.88;1729918;81;21019;-76
2022/11/22 10:26:05;;;;;;;47.83;20.67;;;;;;;1.74;91.44;99374.87;1731247;81;21012;-75
2022/11/22 10:29:02;;;;;;;39.17;20.13;;;;;;;1.72;91.42;99375.36;1722967;82;21915;-79
2022/11/22 10:31:47;;;;;;;44.90;21.03;;;;;;;1.74;91.73;99377.00;1727665;82;21454;-75
2022/11/22 10:34:31;;;;;;;48.50;21.00;;;;;;;1.74;91.54;99373.13;1740420;82;20904;-75
2022/11/22 10:37:04;;;;;;;45.97;21.13;;;;;;;1.74;91.60;99370.99;1738151;82;21016;-75
2022/11/22 10:39:46;;;;;;;43.47;20.93;;;;;;;1.77;91.66;99365.77;1725484;82;21046;-77
2022/11/22 10:42:31;;;;;;;50.43;21.27;;;;;;;1.77;91.55;99368.35;1731202;82;21135;-75
2022/11/22 10:45:22;;;;;;;42.07;20.73;;;;;;;1.77;91.65;99367.06;1754695;81;21062;-77
2022/11/22 10:47:53;;;;;;;;;;;;;;;1.82;91.86;99372.16;1758543;81;20993;-75
2022/11/22 10:50:32;;;;;;;;;;;;;;;1.84;91.77;99357.48;1759592;81;20252;-75
2022/11/22 10:53:25;;;;;;;43.80;20.30;;;;;;;1.86;91.72;99355.29;1756306;81;21348;-75
2022/11/22 10:56:12;;;;;;;42.40;20.30;;;;;;;1.87;91.58;99349.67;1756939;81;21051;-75
2022/11/22 10:59:03;;;;;;;44.57;21.37;;;;;;;1.91;91.67;99354.77;1755965;81;20983;-80
2022/11/22 11:02:01;;;;;;;38.80;19.30;;;;;;;1.90;91.53;99350.91;1755744;81;21592;-75
2022/11/22 11:04:35;;;;;;;42.60;20.23;;;;;;;1.94;91.58;99344.38;1756596;81;21067;-76
2022/11/22 11:07:05;;;;;;;45.73;21.60;;;;;;;2.00;91.81;99347.28;1756986;81;21034;-75
2022/11/22 11:09:44;;;;;;;39.10;19.73;;;;;;;2.06;91.63;99345.86;1757075;81;21142;-77
2022/11/22 11:12:16;;;;;;;49.10;22.23;;;;;;;2.06;91.33;99348.45;1756788;81;22162;-78
2022/11/22 11:14:47;;;;;;;39.67;19.87;;;;;;;2.05;91.23;99343.30;1756193;81;21004;-75
2022/11/22 11:17:35;;;;;;;43.40;21.20;;;;;;;2.05;91.22;99339.41;1756942;81;21023;-76
2022/11/22 11:20:07;;;;;;;35.63;20.03;;;;;;;2.05;91.16;99341.59;1756843;81;21501;-85
2022/11/22 11:22:34;;;;;;;39.93;20.13;;;;;;;2.07;91.44;99339.80;1734060;81;21485;-75
2022/11/22 11:25:39;;;;;;;37.13;19.87;;;;;;;2.12;91.54;99334.10;1756649;81;20996;-78
2022/11/22 11:28:08;;;;;;;47.30;23.20;;;;;;;2.14;91.21;99340.55;1753938;81;21019;-80
2022/11/22 11:30:53;;;;;;;48.23;23.53;;;;;;;2.14;91.27;99337.97;1754096;81;21039;-81
2022/11/22 11:33:27;;;;;;;39.63;20.67;;;;;;;2.15;91.21;99344.83;1753338;81;21039;-76
2022/11/22 11:36:02;;;;;;;41.70;21.67;;;;;;;2.15;91.31;99345.67;1724937;81;21208;-72
2022/11/22 11:38:45;;;;;;;38.37;20.17;;;;;;;2.15;91.16;99345.67;1732102;82;21505;-78
2022/11/22 11:41:28;;;;;;;45.10;22.47;;;;;;;2.15;91.17;99339.21;1732272;82;21552;-79
2022/11/22 11:43:59;;;;;;;37.33;21.07;;;;;;;2.16;91.25;99337.47;1736179;81;21039;-81
2022/11/22 11:46:29;;;;;;;43.57;21.53;;;;;;;2.16;91.07;99337.06;1732149;82;21553;-80
2022/11/22 11:49:17;;;;;;;41.97;21.27;;;;;;;2.16;91.06;99337.06;1734290;81;22063;-81
2022/11/22 11:51:57;;;;;;;39.90;21.27;;;;;;;2.18;91.14;99337.01;1732425;82;21004;-78
2022/11/22 11:54:45;;;;;;;41.42;20.68;;;;;;;2.18;91.13;99340.44;1716336;82;21035;-80
2022/11/22 11:57:25;;;;;;;42.90;22.70;;;;;;;2.23;91.21;99339.06;1720973;82;21056;-80